Time;durP1;ratioP1;P1;durP2;ratioP2;P2;SDS_P1;SDS_P2;PMS_P1;PMS_P2;Temp;Humidity;BMP_temperature;BMP_pressure;BME280_temperature;BME280_humidity;BME280_pressure;Samples;Min_cycle;Max_cycle;Signal;HPM_P1;HPM_P2
2023/12/26 00:00:30;;;;;;;3.75;1.67;;;;;;;10.62;100.00;100526.88;5073290;28;20072;-89
2023/12/26 00:02:57;;;;;;;1.73;1.60;;;;;;;10.59;100.00;100523.31;5075802;28;20029;-88
2023/12/26 00:05:25;;;;;;;5.10;1.90;;;;;;;10.58;100.00;100529.44;5076724;28;20059;-89
2023/12/26 00:07:51;;;;;;;3.30;1.73;;;;;;;10.47;100.00;100513.56;5056999;28;20127;-90
2023/12/26 00:10:16;;;;;;;2.60;1.90;;;;;;;10.56;100.00;100523.28;5059402;28;20116;-90
2023/12/26 00:12:44;;;;;;;3.20;1.98;;;;;;;10.46;100.00;100512.69;5042706;28;20500;-89
2023/12/26 00:15:09;;;;;;;3.47;1.80;;;;;;;10.55;100.00;100530.34;5042602;28;20032;-90
2023/12/26 00:17:35;;;;;;;5.70;2.03;;;;;;;10.55;100.00;100532.09;5079416;28;20116;-89
2023/12/26 00:20:04;;;;;;;3.83;1.90;;;;;;;10.39;100.00;100510.84;5080370;28;20055;-89
2023/12/26 00:22:30;;;;;;;4.38;2.13;;;;;;;10.51;100.00;100528.56;5064563;28;20469;-89
2023/12/26 00:24:56;;;;;;;5.35;2.00;;;;;;;10.52;100.00;100527.66;5062702;28;20028;-90
2023/12/26 00:27:21;;;;;;;4.00;1.90;;;;;;;10.52;100.00;100536.47;5045662;28;20052;-89
2023/12/26 00:29:47;;;;;;;1.95;1.75;;;;;;;10.35;100.00;100489.72;5082816;28;20073;-89
2023/12/26 00:32:12;;;;;;;3.83;2.08;;;;;;;10.46;100.00;100517.97;5064625;28;20086;-91
2023/12/26 00:34:37;;;;;;;3.35;1.98;;;;;;;10.48;100.00;100523.25;5084181;28;20166;-91
2023/12/26 00:37:03;;;;;;;3.00;1.80;;;;;;;10.35;100.00;100513.47;5067625;28;20487;-90
2023/12/26 00:39:28;;;;;;;3.25;1.98;;;;;;;10.44;100.00;100526.75;5069147;28;20032;-90
2023/12/26 00:41:54;;;;;;;2.33;1.67;;;;;;;10.42;100.00;100536.44;5073759;28;20095;-89
2023/12/26 00:44:19;;;;;;;1.83;1.70;;;;;;;10.39;100.00;100534.63;5067163;28;20036;-90
2023/12/26 00:46:46;;;;;;;3.35;1.73;;;;;;;10.42;100.00;100541.72;5071721;28;20055;-91
2023/12/26 00:49:12;;;;;;;3.28;1.70;;;;;;;10.38;100.00;100538.16;5089653;28;20024;-90
2023/12/26 00:51:38;;;;;;;2.75;1.60;;;;;;;10.36;100.00;100531.09;5088635;28;20064;-91
2023/12/26 00:54:03;;;;;;;5.38;1.95;;;;;;;10.39;100.00;100539.91;5051718;28;20450;-90
2023/12/26 00:56:28;;;;;;;3.30;1.63;;;;;;;10.36;100.00;100534.59;5085661;28;20028;-91
2023/12/26 00:58:54;;;;;;;3.33;1.80;;;;;;;10.36;100.00;100544.28;5064939;28;20423;-90
2023/12/26 01:01:19;;;;;;;2.95;1.80;;;;;;;10.18;100.00;100524.78;5064127;28;20048;-90
2023/12/26 01:03:45;;;;;;;4.80;1.70;;;;;;;10.25;100.00;100537.19;5063004;28;20032;-90
2023/12/26 01:06:10;;;;;;;2.72;1.50;;;;;;;10.36;100.00;100562.78;5066317;28;20096;-92
2023/12/26 01:08:36;;;;;;;1.77;1.50;;;;;;;10.35;100.00;100561.00;5067477;28;20444;-91
2023/12/26 01:11:01;;;;;;;2.22;1.70;;;;;;;10.19;100.00;100534.47;5052277;28;20135;-91
2023/12/26 01:13:30;;;;;;;1.98;1.50;;;;;;;10.29;100.00;100546.03;5070490;28;20416;-92
2023/12/26 01:15:55;;;;;;;2.55;1.60;;;;;;;10.31;100.00;100554.81;5036669;28;20542;-91
2023/12/26 01:18:20;;;;;;;1.52;1.42;;;;;;;10.32;100.00;100560.97;5088510;28;20036;-90
2023/12/26 01:20:46;;;;;;;2.15;1.50;;;;;;;10.32;100.00;100559.25;5087453;28;20442;-90
2023/12/26 01:23:11;;;;;;;2.60;1.42;;;;;;;10.31;100.00;100553.94;5041546;28;20032;-90
2023/12/26 01:25:37;;;;;;;2.22;1.70;;;;;;;10.31;100.00;100546.91;5076557;28;20393;-90
2023/12/26 01:28:02;;;;;;;1.75;1.60;;;;;;;10.32;100.00;100547.78;5045923;28;20062;-90
2023/12/26 01:30:30;;;;;;;1.67;1.55;;;;;;;10.30;100.00;100552.19;5064365;28;20043;-90
2023/12/26 01:32:56;;;;;;;2.10;1.60;;;;;;;10.35;100.00;100561.00;5064755;28;20088;-90
2023/12/26 01:35:21;;;;;;;1.92;1.70;;;;;;;10.35;100.00;100563.66;5064827;28;20067;-90
2023/12/26 01:37:47;;;;;;;3.55;1.80;;;;;;;10.35;100.00;100561.00;5080283;28;20029;-89
2023/12/26 01:40:12;;;;;;;1.70;1.60;;;;;;;10.22;100.00;100546.81;5080271;28;20071;-90
2023/12/26 01:42:41;;;;;;;2.33;1.80;;;;;;;10.38;100.00;100582.19;5046037;28;20032;-89
2023/12/26 01:45:06;;;;;;;2.83;2.00;;;;;;;10.25;100.00;100562.72;5077881;28;20024;-90
2023/12/26 01:47:32;;;;;;;2.63;2.10;;;;;;;10.36;100.00;100575.97;5060608;28;20033;-89
2023/12/26 01:49:58;;;;;;;3.70;2.00;;;;;;;10.34;100.00;100583.03;5060345;28;20036;-90
2023/12/26 01:52:24;;;;;;;2.95;2.10;;;;;;;10.35;100.00;100588.31;5077939;28;20473;-89
2023/12/26 01:54:59;;;;;;;2.67;2.10;;;;;;;10.32;100.00;100588.31;5078962;28;20044;-91
2023/12/26 01:57:25;;;;;;;3.10;2.10;;;;;;;10.13;100.00;100557.31;5050737;28;20453;-91
2023/12/26 01:59:50;;;;;;;2.40;2.00;;;;;;;10.25;100.00;100583.84;5082428;28;20078;-90
2023/12/26 02:02:18;;;;;;;2.45;1.90;;;;;;;10.33;100.00;100592.72;5061161;28;20036;-92
2023/12/26 02:04:44;;;;;;;3.03;2.00;;;;;;;10.34;100.00;100590.94;5056417;28;20057;-90
2023/12/26 02:07:09;;;;;;;3.22;2.17;;;;;;;10.30;100.00;100594.44;5074709;28;20055;-91
2023/12/26 02:09:36;;;;;;;2.70;1.90;;;;;;;10.24;100.00;100577.69;5056487;28;20481;-91
2023/12/26 02:12:04;;;;;;;2.22;2.03;;;;;;;10.28;100.00;100600.59;5074543;28;20540;-90
2023/12/26 02:14:30;;;;;;;2.78;2.20;;;;;;;10.25;100.00;100597.03;5056761;28;20087;-91
2023/12/26 02:16:58;;;;;;;2.30;2.10;;;;;;;10.30;100.00;100599.72;5074221;28;20032;-92
2023/12/26 02:19:24;;;;;;;3.78;2.08;;;;;;;10.27;100.00;100588.25;5074441;28;20033;-89
2023/12/26 02:21:50;;;;;;;2.65;2.05;;;;;;;10.24;100.00;100592.59;5056448;28;20036;-91
2023/12/26 02:24:15;;;;;;;4.80;2.10;;;;;;;10.30;100.00;100602.34;5073756;28;20047;-90
2023/12/26 02:26:41;;;;;;;2.35;1.92;;;;;;;10.23;100.00;100594.34;5074193;28;20389;-90
2023/12/26 02:29:08;;;;;;;2.38;2.00;;;;;;;10.32;100.00;100601.50;5073919;28;20033;-90
2023/12/26 02:31:36;;;;;;;4.13;2.00;;;;;;;10.23;100.00;100593.44;5055978;28;20127;-90
2023/12/26 02:34:02;;;;;;;2.33;1.90;;;;;;;10.28;100.00;100605.00;5074044;28;20017;-90
2023/12/26 02:36:28;;;;;;;2.22;1.90;;;;;;;10.20;100.00;100588.16;5056007;28;20036;-89
2023/12/26 02:38:53;;;;;;;2.72;1.90;;;;;;;10.26;100.00;100604.97;5073981;28;20430;-89
2023/12/26 02:41:19;;;;;;;2.45;1.92;;;;;;;10.28;100.00;100602.34;5039351;28;20045;-89
2023/12/26 02:43:47;;;;;;;3.20;2.33;;;;;;;10.25;100.00;100587.38;5073885;28;20037;-89
2023/12/26 02:46:12;;;;;;;4.10;2.17;;;;;;;10.34;100.00;100623.53;5073621;28;20111;-89
2023/12/26 02:48:38;;;;;;;2.50;2.03;;;;;;;10.25;100.00;100602.31;5073894;28;20429;-89
2023/12/26 02:51:03;;;;;;;2.72;2.00;;;;;;;10.26;100.00;100596.16;5073989;28;20036;-90
2023/12/26 02:53:29;;;;;;;2.65;2.00;;;;;;;10.24;100.00;100604.09;5074044;28;20381;-89
2023/12/26 02:55:54;;;;;;;4.85;2.50;;;;;;;10.30;100.00;100615.56;5074041;28;20074;-89
2023/12/26 02:58:20;;;;;;;2.63;2.00;;;;;;;10.35;100.00;100629.69;5073731;28;20086;-88
2023/12/26 03:00:47;;;;;;;3.30;2.17;;;;;;;10.25;100.00;100604.97;5073662;28;20034;-89
2023/12/26 03:03:12;;;;;;;3.13;2.30;;;;;;;10.25;100.00;100608.50;5073553;28;20039;-89
2023/12/26 03:05:37;;;;;;;3.17;2.38;;;;;;;10.22;100.00;100613.69;5055400;28;20056;-89
2023/12/26 03:08:03;;;;;;;4.20;2.70;;;;;;;10.31;100.00;100634.06;5055677;28;20478;-89
2023/12/26 03:10:29;;;;;;;3.20;2.60;;;;;;;10.32;100.00;100643.78;5073684;28;20039;-89
2023/12/26 03:12:54;;;;;;;4.15;3.15;;;;;;;10.31;100.00;100655.19;5073154;28;20036;-89
2023/12/26 03:15:20;;;;;;;3.90;2.95;;;;;;;10.32;100.00;100656.06;5038896;28;20041;-89
2023/12/26 03:17:48;;;;;;;4.05;3.08;;;;;;;10.34;100.00;100665.78;5038866;28;20124;-90
2023/12/26 03:20:14;;;;;;;5.25;3.40;;;;;;;10.33;100.00;100661.38;5038922;28;20370;-89
2023/12/26 03:22:40;;;;;;;5.90;3.60;;;;;;;10.30;100.00;100663.97;5055299;28;20545;-91
2023/12/26 03:25:06;;;;;;;5.30;3.47;;;;;;;10.21;100.00;100654.19;5073215;28;20032;-89
2023/12/26 03:27:32;;;;;;;5.32;3.22;;;;;;;10.13;100.00;100632.09;5073561;28;20033;-91
2023/12/26 03:29:57;;;;;;;4.88;3.20;;;;;;;10.26;100.00;100662.19;5055787;28;20409;-90
2023/12/26 03:32:22;;;;;;;6.78;3.42;;;;;;;10.20;100.00;100657.72;5055436;28;20037;-90
2023/12/26 03:34:48;;;;;;;6.03;3.20;;;;;;;10.27;100.00;100670.09;5073548;28;20036;-90
2023/12/26 03:37:13;;;;;;;5.80;3.10;;;;;;;10.14;100.00;100646.19;5055499;28;20107;-90
2023/12/26 03:39:41;;;;;;;6.00;3.10;;;;;;;10.16;100.00;100655.91;5055834;28;20512;-91
2023/12/26 03:42:06;;;;;;;5.35;3.15;;;;;;;10.09;100.00;100653.19;5073312;28;20037;-90
2023/12/26 03:44:32;;;;;;;4.10;2.92;;;;;;;9.99;100.00;100633.75;5059061;28;20105;-89
2023/12/26 03:46:57;;;;;;;7.95;2.88;;;;;;;10.15;100.00;100654.16;5077421;28;20097;-90
2023/12/26 03:49:22;;;;;;;5.50;2.55;;;;;;;9.93;100.00;100626.63;5059655;28;20490;-89
2023/12/26 03:51:48;;;;;;;8.75;2.83;;;;;;;9.85;100.00;100608.94;5077494;28;20032;-90
2023/12/26 03:54:14;;;;;;;6.75;2.80;;;;;;;10.19;100.00;100678.78;5077256;28;20044;-90
2023/12/26 03:56:40;;;;;;;4.40;2.20;;;;;;;10.16;100.00;100676.16;5077437;28;20032;-91
2023/12/26 03:59:06;;;;;;;5.82;2.40;;;;;;;10.07;100.00;100662.88;5059288;28;20059;-90
2023/12/26 04:01:31;;;;;;;8.05;2.30;;;;;;;10.14;100.00;100672.59;5077347;28;20039;-90
2023/12/26 04:03:57;;;;;;;7.65;2.58;;;;;;;10.08;100.00;100651.44;5058817;28;20094;-90
2023/12/26 04:06:23;;;;;;;6.75;2.17;;;;;;;10.14;100.00;100676.13;5059390;28;20032;-90
2023/12/26 04:08:48;;;;;;;6.82;2.17;;;;;;;10.23;100.00;100702.59;5059329;28;20067;-90
2023/12/26 04:11:13;;;;;;;6.65;2.30;;;;;;;10.25;100.00;100710.59;5058844;28;20044;-91
2023/12/26 04:13:39;;;;;;;6.57;2.28;;;;;;;10.24;100.00;100717.63;5042154;28;20041;-90
2023/12/26 04:16:05;;;;;;;7.47;2.10;;;;;;;10.20;100.00;100712.28;5076399;28;20033;-90
2023/12/26 04:18:32;;;;;;;9.93;2.17;;;;;;;10.24;100.00;100714.09;5076389;28;20465;-90
2023/12/26 04:20:57;;;;;;;7.40;2.22;;;;;;;10.22;100.00;100714.03;5058684;28;20039;-89
2023/12/26 04:23:22;;;;;;;5.75;2.08;;;;;;;10.23;100.00;100696.44;5058719;28;20028;-90
2023/12/26 04:25:50;;;;;;;9.68;2.35;;;;;;;10.17;100.00;100707.84;5076323;28;20033;-90
2023/12/26 04:28:15;;;;;;;8.57;2.15;;;;;;;10.12;100.00;100708.66;5076513;28;20037;-89
2023/12/26 04:30:41;;;;;;;7.90;2.15;;;;;;;10.15;100.00;100709.59;5058566;28;20033;-90
2023/12/26 04:33:07;;;;;;;7.95;2.20;;;;;;;10.03;100.00;100693.63;5076422;28;20082;-90
2023/12/26 04:35:36;;;;;;;6.82;2.10;;;;;;;10.18;100.00;100733.38;5041920;28;20032;-90
2023/12/26 04:38:02;;;;;;;8.15;2.10;;;;;;;10.17;100.00;100742.16;5075985;28;20020;-89
2023/12/26 04:40:28;;;;;;;7.93;2.00;;;;;;;10.05;100.00;100718.25;5058231;28;20033;-90
2023/12/26 04:42:54;;;;;;;7.30;2.15;;;;;;;10.03;100.00;100735.84;5076130;28;20039;-90
2023/12/26 04:45:19;;;;;;;5.72;1.80;;;;;;;10.14;100.00;100754.44;5076220;28;20040;-90
2023/12/26 04:47:45;;;;;;;8.82;2.13;;;;;;;10.08;100.00;100749.09;5076172;28;20032;-91
2023/12/26 04:50:10;;;;;;;7.95;2.10;;;;;;;10.03;100.00;100757.84;5057993;28;20036;-91
2023/12/26 04:52:36;;;;;;;4.70;1.80;;;;;;;10.04;100.00;100772.81;5058225;28;20028;-91
2023/12/26 04:55:02;;;;;;;6.60;1.80;;;;;;;10.02;100.00;100774.56;5075804;28;20028;-89
2023/12/26 04:57:27;;;;;;;8.90;1.75;;;;;;;10.03;100.00;100772.81;5075947;28;20028;-90
2023/12/26 04:59:53;;;;;;;10.20;2.00;;;;;;;10.02;100.00;100779.84;5041386;28;20032;-90
2023/12/26 05:02:18;;;;;;;5.22;1.85;;;;;;;9.95;100.00;100770.09;5057939;28;20036;-89
2023/12/26 05:04:43;;;;;;;8.05;2.10;;;;;;;9.96;100.00;100777.13;5057554;28;20063;-89
2023/12/26 05:07:09;;;;;;;7.65;2.05;;;;;;;10.05;100.00;100792.19;5058000;28;20237;-88
2023/12/26 05:09:35;;;;;;;8.25;2.10;;;;;;;10.05;100.00;100797.47;5076052;28;20036;-89
2023/12/26 05:12:01;;;;;;;5.28;1.80;;;;;;;10.03;100.00;100799.22;5075586;28;20040;-89
2023/12/26 05:14:26;;;;;;;7.32;1.90;;;;;;;9.91;100.00;100792.03;5057830;28;20090;-88
2023/12/26 05:16:51;;;;;;;6.53;1.90;;;;;;;10.02;100.00;100805.34;5075675;28;20028;-89
2023/12/26 05:19:17;;;;;;;6.75;1.85;;;;;;;10.00;100.00;100807.09;5057382;28;20460;-88
2023/12/26 05:21:43;;;;;;;4.55;1.83;;;;;;;9.99;100.00;100802.69;5057423;28;20039;-88
2023/12/26 05:24:08;;;;;;;8.73;1.70;;;;;;;9.92;100.00;100801.72;5057359;28;20032;-88
2023/12/26 05:26:41;;;;;;;8.18;2.40;;;;;;;9.86;100.00;100791.09;5075124;28;20036;-88
2023/12/26 05:29:06;;;;;;;;;;;;;;;10.01;100.00;100808.84;5075494;28;20033;-88
2023/12/26 05:31:32;;;;;;;10.23;1.98;;;;;;;9.97;100.00;100833.44;5057448;28;19919;-89
2023/12/26 05:33:58;;;;;;;7.97;1.88;;;;;;;9.94;100.00;100833.41;5075484;28;20038;-88
2023/12/26 05:36:24;;;;;;;6.20;2.00;;;;;;;9.93;100.00;100832.50;5075258;28;20033;-89
2023/12/26 05:38:49;;;;;;;9.18;2.15;;;;;;;9.92;100.00;100832.50;5057189;28;20048;-90
2023/12/26 05:41:15;;;;;;;10.48;2.15;;;;;;;9.91;100.00;100844.81;5057042;28;20029;-89
2023/12/26 05:43:40;;;;;;;6.50;2.13;;;;;;;9.87;100.00;100844.75;5074727;28;20028;-89
2023/12/26 05:46:06;;;;;;;11.80;2.35;;;;;;;9.83;100.00;100853.50;5040828;28;20036;-88
2023/12/26 05:48:31;;;;;;;7.60;1.92;;;;;;;9.51;100.00;100809.09;5057180;28;20029;-88
2023/12/26 05:50:56;;;;;;;4.22;1.75;;;;;;;9.82;100.00;100871.09;5056837;28;20071;-88
2023/12/26 05:53:23;;;;;;;7.65;2.03;;;;;;;9.78;100.00;100871.91;5056927;28;20024;-89
2023/12/26 05:55:49;;;;;;;10.02;2.00;;;;;;;9.76;100.00;100895.63;5056614;28;20461;-90
2023/12/26 05:58:14;;;;;;;11.60;2.25;;;;;;;9.72;100.00;100890.25;5075047;28;20031;-91
2023/12/26 06:00:40;;;;;;;6.20;2.08;;;;;;;9.69;100.00;100909.59;5056882;28;20128;-90
2023/12/26 06:03:05;;;;;;;8.63;2.08;;;;;;;9.57;100.00;100903.25;5056469;28;20024;-90
2023/12/26 06:05:30;;;;;;;5.82;2.00;;;;;;;9.62;100.00;100910.34;5056120;28;20055;-90
2023/12/26 06:07:56;;;;;;;6.75;2.33;;;;;;;9.59;100.00;100918.22;5074642;28;20032;-90
2023/12/26 06:10:21;;;;;;;8.93;2.00;;;;;;;9.52;100.00;100901.41;5057029;28;20040;-90
2023/12/26 06:12:47;;;;;;;7.65;2.10;;;;;;;9.52;100.00;100917.25;5074485;28;20064;-90
2023/12/26 06:15:12;;;;;;;7.15;1.92;;;;;;;9.47;100.00;100923.31;5074129;28;20056;-89
2023/12/26 06:17:38;;;;;;;6.68;1.95;;;;;;;9.46;100.00;100932.97;5056411;28;20033;-90
2023/12/26 06:20:04;;;;;;;9.75;2.17;;;;;;;9.25;100.00;100908.88;5056535;28;20036;-90
2023/12/26 06:22:29;;;;;;;7.82;2.20;;;;;;;9.34;100.00;100926.63;5039935;28;20049;-89
2023/12/26 06:24:55;;;;;;;5.13;1.70;;;;;;;9.22;100.00;100919.38;5056193;28;20089;-90
2023/12/26 06:27:20;;;;;;;8.75;2.00;;;;;;;9.26;100.00;100953.72;5073876;28;20115;-90
2023/12/26 06:29:45;;;;;;;10.80;2.00;;;;;;;9.23;100.00;100951.03;5056331;28;20033;-89
2023/12/26 06:32:11;;;;;;;6.90;2.10;;;;;;;9.22;100.00;100961.56;5073793;28;20182;-89
2023/12/26 06:34:36;;;;;;;6.80;1.90;;;;;;;9.17;100.00;100958.84;5073858;28;20037;-89
2023/12/26 06:37:02;;;;;;;6.85;2.00;;;;;;;9.13;100.00;100962.28;5039476;28;20033;-89
2023/12/26 06:39:27;;;;;;;8.27;1.77;;;;;;;8.96;100.00;100950.53;5073884;28;20036;-89
2023/12/26 06:41:52;;;;;;;8.77;2.10;;;;;;;9.03;99.51;100971.75;5056055;28;20029;-89
2023/12/26 06:44:18;;;;;;;10.20;2.00;;;;;;;9.00;100.00;100984.00;5073771;28;20028;-89
2023/12/26 06:46:43;;;;;;;11.65;2.28;;;;;;;8.99;100.00;100976.94;5055982;28;20067;-89
2023/12/26 06:49:09;;;;;;;6.60;2.03;;;;;;;8.96;100.00;100982.16;5073789;28;20090;-89
2023/12/26 06:51:40;;;;;;;8.30;2.00;;;;;;;8.87;99.88;100974.09;5073706;28;20024;-89
2023/12/26 06:54:06;;;;;;;7.77;2.07;;;;;;;8.89;99.99;100991.69;5055864;28;20128;-89
2023/12/26 06:56:31;;;;;;;9.00;2.20;;;;;;;8.87;100.00;100993.41;5073181;28;20029;-89
2023/12/26 06:58:58;;;;;;;10.85;2.30;;;;;;;8.84;100.00;100995.97;5073593;28;20119;-89
2023/12/26 07:01:23;;;;;;;8.98;1.95;;;;;;;8.76;100.00;100998.44;5073542;28;20062;-89
2023/12/26 07:03:49;;;;;;;4.85;2.00;;;;;;;8.57;100.00;100961.19;5073218;28;20032;-91
2023/12/26 07:06:14;;;;;;;9.77;2.08;;;;;;;8.61;100.00;100979.72;5055976;28;20082;-89
2023/12/26 07:08:40;;;;;;;11.05;2.30;;;;;;;8.69;100.00;101003.56;5055650;28;20549;-90
2023/12/26 07:11:05;;;;;;;11.52;2.25;;;;;;;8.68;100.00;101007.06;5055398;28;20048;-89
2023/12/26 07:13:30;;;;;;;8.48;2.38;;;;;;;8.64;100.00;101014.00;5055701;28;20032;-90
2023/12/26 07:15:56;;;;;;;9.32;1.98;;;;;;;8.58;100.00;101015.63;5055835;28;20429;-89
2023/12/26 07:18:21;;;;;;;6.45;1.80;;;;;;;8.63;100.00;101035.03;5054928;28;20039;-89
2023/12/26 07:20:47;;;;;;;11.13;2.17;;;;;;;8.56;100.00;101034.00;5073557;28;20107;-89
2023/12/26 07:23:12;;;;;;;6.30;1.90;;;;;;;8.59;100.00;101044.63;5073004;28;20143;-90
2023/12/26 07:25:37;;;;;;;9.13;2.15;;;;;;;8.56;100.00;101052.44;5055349;28;20534;-89
2023/12/26 07:28:04;;;;;;;9.23;2.00;;;;;;;8.56;100.00;101055.09;5055342;28;20039;-89
2023/12/26 07:30:29;;;;;;;8.55;2.20;;;;;;;8.52;100.00;101061.13;5038614;28;20040;-89
2023/12/26 07:32:54;;;;;;;9.15;2.00;;;;;;;8.50;100.00;101070.75;5055584;28;20377;-89
2023/12/26 07:35:20;;;;;;;9.25;2.28;;;;;;;8.44;100.00;101071.50;5073207;28;20044;-89
2023/12/26 07:37:45;;;;;;;12.32;2.20;;;;;;;8.48;100.00;101072.47;5072887;28;20028;-90
2023/12/26 07:40:11;;;;;;;7.53;2.13;;;;;;;8.45;100.00;101069.78;5073081;28;20115;-90
2023/12/26 07:42:37;;;;;;;5.13;2.38;;;;;;;8.13;100.00;101006.69;5055116;28;20032;-90
2023/12/26 07:45:02;;;;;;;8.43;1.98;;;;;;;8.23;100.00;101032.38;5072704;28;20040;-90
2023/12/26 07:47:28;;;;;;;11.07;2.30;;;;;;;8.37;100.00;101072.22;5072938;28;20036;-89
2023/12/26 07:49:53;;;;;;;10.15;2.38;;;;;;;8.47;100.00;101084.72;5072801;28;20428;-89
2023/12/26 07:52:19;;;;;;;11.35;2.40;;;;;;;8.52;100.00;101098.00;5073544;28;20060;-89
2023/12/26 07:54:44;;;;;;;14.18;2.08;;;;;;;8.44;100.00;101081.16;5072686;28;20037;-89
2023/12/26 07:57:09;;;;;;;9.60;2.17;;;;;;;8.55;100.00;101102.47;5055475;28;20110;-91
2023/12/26 07:59:35;;;;;;;13.15;2.35;;;;;;;8.51;100.00;101102.38;5062770;28;20070;-89
2023/12/26 08:02:00;;;;;;;12.32;3.03;;;;;;;8.47;100.00;101102.28;5056408;28;20040;-89
2023/12/26 08:04:26;;;;;;;10.30;2.60;;;;;;;8.56;100.00;101110.38;5072638;28;20122;-89
2023/12/26 08:06:51;;;;;;;15.23;2.28;;;;;;;8.57;100.00;101122.72;5054544;28;20036;-90
2023/12/26 08:09:17;;;;;;;11.70;2.20;;;;;;;8.57;100.00;101124.47;5054713;28;20033;-90
2023/12/26 08:11:42;;;;;;;8.30;2.45;;;;;;;8.46;100.00;101118.94;5054963;28;20037;-89
2023/12/26 08:14:09;;;;;;;7.53;2.28;;;;;;;8.55;100.00;101131.44;5072782;28;20059;-90
2023/12/26 08:16:34;;;;;;;10.40;2.33;;;;;;;8.54;100.00;101151.63;5056466;28;20123;-89
2023/12/26 08:19:01;;;;;;;9.82;2.10;;;;;;;8.50;100.00;101150.66;5058325;28;20064;-89
2023/12/26 08:21:27;;;;;;;10.82;2.20;;;;;;;8.45;100.00;101159.31;5054657;28;20036;-89
2023/12/26 08:23:52;;;;;;;13.23;2.78;;;;;;;8.34;100.00;101142.31;5072530;28;20408;-89
2023/12/26 08:26:18;;;;;;;9.23;2.08;;;;;;;8.43;100.00;101168.91;5038128;28;20053;-89
2023/12/26 08:28:44;;;;;;;10.70;2.50;;;;;;;8.39;100.00;101173.19;5074629;28;20110;-89
2023/12/26 08:31:09;;;;;;;11.40;2.70;;;;;;;8.40;100.00;101179.38;5058298;28;20504;-90
2023/12/26 08:33:37;;;;;;;8.02;2.17;;;;;;;8.35;100.00;101179.22;5043063;28;20078;-88
2023/12/26 08:36:03;;;;;;;11.05;2.20;;;;;;;8.33;100.00;101190.56;5076186;28;20119;-89
2023/12/26 08:38:28;;;;;;;12.13;2.40;;;;;;;8.34;100.00;101190.59;5075863;28;20112;-89
2023/12/26 08:40:54;;;;;;;10.63;2.55;;;;;;;8.34;100.00;101189.69;5075757;28;20115;-89
2023/12/26 08:43:22;;;;;;;10.85;2.60;;;;;;;8.38;100.00;101203.00;5057825;28;20028;-88
2023/12/26 08:45:47;;;;;;;10.82;2.15;;;;;;;8.34;100.00;101205.50;5081071;28;20025;-89
2023/12/26 08:48:13;;;;;;;10.98;2.67;;;;;;;8.21;100.00;101180.59;5076396;28;20024;-89
2023/12/26 08:50:38;;;;;;;16.85;2.83;;;;;;;8.21;100.00;101170.97;5058494;28;20475;-89
2023/12/26 08:53:04;;;;;;;9.23;2.13;;;;;;;8.27;100.00;101188.66;5080215;28;20029;-88
2023/12/26 08:55:29;;;;;;;10.35;2.55;;;;;;;8.33;100.00;101198.47;5057179;28;20025;-88
2023/12/26 08:57:54;;;;;;;11.88;2.30;;;;;;;8.33;100.00;101211.63;5057495;28;20055;-89
2023/12/26 09:00:20;;;;;;;8.57;2.38;;;;;;;8.27;100.00;101207.09;5075782;28;20461;-88
2023/12/26 09:02:46;;;;;;;7.90;2.15;;;;;;;8.37;100.00;101224.94;5075827;28;20032;-89
2023/12/26 09:05:11;;;;;;;10.60;2.65;;;;;;;8.33;100.00;101224.78;5075445;28;20056;-89
2023/12/26 09:07:38;;;;;;;13.90;2.53;;;;;;;8.38;100.00;101233.72;5075709;28;20036;-89
2023/12/26 09:10:05;;;;;;;11.20;2.40;;;;;;;8.53;100.00;101224.47;5075393;28;20028;-90
2023/12/26 09:12:31;;;;;;;10.32;2.83;;;;;;;8.86;100.00;101228.78;5043555;28;20032;-88
2023/12/26 09:14:56;;;;;;;11.10;2.45;;;;;;;9.12;100.00;101224.13;5057544;28;20104;-89
2023/12/26 09:17:21;;;;;;;15.02;2.50;;;;;;;9.43;100.00;101236.25;5075065;28;20082;-89
2023/12/26 09:19:47;;;;;;;11.10;2.45;;;;;;;9.82;100.00;101247.59;5075536;28;20534;-88
2023/12/26 09:22:12;;;;;;;12.77;2.50;;;;;;;9.90;100.00;101257.44;5040662;28;20032;-87
2023/12/26 09:24:41;;;;;;;11.60;2.95;;;;;;;9.74;100.00;101231.59;5058347;28;20457;-88
2023/12/26 09:27:07;;;;;;;8.15;2.60;;;;;;;10.03;100.00;101256.81;5074916;28;20055;-90
2023/12/26 09:29:33;;;;;;;12.25;2.58;;;;;;;10.17;98.68;101270.28;5040813;28;20455;-88
2023/12/26 09:32:00;;;;;;;13.07;2.60;;;;;;;9.99;98.12;101272.59;5057034;28;20024;-91
2023/12/26 09:34:26;;;;;;;9.80;2.42;;;;;;;10.00;99.10;101284.91;5075322;28;20028;-89
2023/12/26 09:36:51;;;;;;;17.42;2.65;;;;;;;10.04;99.24;101286.75;5057140;28;20457;-89
2023/12/26 09:39:17;;;;;;;7.90;2.20;;;;;;;10.19;97.58;101291.44;5057194;28;20028;-86
2023/12/26 09:41:44;;;;;;;11.73;2.75;;;;;;;10.33;97.05;101304.97;5074069;28;20036;-87
2023/12/26 09:44:10;;;;;;;9.13;2.50;;;;;;;10.10;96.63;101271.03;5074700;28;20028;-88
2023/12/26 09:46:37;;;;;;;10.20;2.60;;;;;;;10.11;95.90;101306.28;5058538;28;20029;-91
2023/12/26 09:49:06;;;;;;;12.43;2.78;;;;;;;9.93;96.15;101307.66;5074684;28;20032;-89
2023/12/26 09:51:37;;;;;;;14.25;2.60;;;;;;;9.69;96.32;101294.84;5058767;28;20460;-91
2023/12/26 09:54:08;;;;;;;9.63;2.90;;;;;;;9.56;96.83;101308.63;5074676;28;20082;-90
2023/12/26 09:56:39;;;;;;;12.77;2.47;;;;;;;9.47;97.43;101319.88;5078755;28;20032;-90
2023/12/26 09:59:05;;;;;;;7.55;2.00;;;;;;;9.34;98.13;101316.91;5056505;28;20029;-92
2023/12/26 10:01:32;;;;;;;11.50;2.20;;;;;;;9.28;96.83;101323.81;5056565;28;20043;-90
2023/12/26 10:03:58;;;;;;;10.30;2.72;;;;;;;9.25;98.32;101329.03;5074164;28;20447;-87
2023/12/26 10:06:23;;;;;;;12.02;2.75;;;;;;;9.17;98.78;101320.03;5074045;28;20123;-84
2023/12/26 10:08:49;;;;;;;11.70;2.95;;;;;;;9.20;98.88;101306.91;5073796;28;20062;-82
2023/12/26 10:11:15;;;;;;;13.73;2.47;;;;;;;9.62;98.53;101353.59;5073848;28;20094;-86
2023/12/26 10:13:49;;;;;;;16.60;2.80;;;;;;;9.86;97.71;101369.09;5056393;28;20039;-85
2023/12/26 10:16:16;;;;;;;11.98;3.00;;;;;;;10.12;97.00;101368.78;5056689;28;20465;-87
2023/12/26 10:18:41;;;;;;;11.50;2.70;;;;;;;10.28;96.37;101371.81;5076807;28;20032;-87
2023/12/26 10:21:14;;;;;;;14.98;2.83;;;;;;;10.37;97.00;101357.88;5055553;28;20034;-86
2023/12/26 10:23:40;;;;;;;11.68;2.50;;;;;;;10.62;94.06;101377.75;5056784;28;20534;-86
2023/12/26 10:26:05;;;;;;;8.18;2.22;;;;;;;10.83;93.80;101386.91;5073350;28;20060;-88
2023/12/26 10:28:41;;;;;;;11.05;2.85;;;;;;;11.00;93.92;101389.00;5055628;28;20029;-85
2023/12/26 10:31:13;;;;;;;11.20;2.45;;;;;;;11.13;93.32;101376.88;5073230;28;20056;-83
2023/12/26 10:33:41;;;;;;;14.45;2.58;;;;;;;11.19;92.86;101377.00;5073218;28;20511;-91
2023/12/26 10:36:12;;;;;;;12.95;2.70;;;;;;;11.24;92.55;101367.38;5055098;28;20028;-84
2023/12/26 10:38:44;;;;;;;9.60;2.40;;;;;;;11.14;92.06;101346.06;5088044;28;20035;-87
2023/12/26 10:41:25;;;;;;;14.05;2.60;;;;;;;11.46;91.57;101383.59;5078306;28;20040;-87
2023/12/26 10:43:59;;;;;;;13.82;2.90;;;;;;;11.49;90.57;101371.31;5073849;28;20035;-88
2023/12/26 10:46:27;;;;;;;10.25;2.75;;;;;;;11.65;89.99;101368.88;5055878;28;20464;-88
2023/12/26 10:48:57;;;;;;;12.70;2.80;;;;;;;11.72;89.30;101374.28;5059462;28;20052;-89
2023/12/26 10:51:25;;;;;;;10.93;2.40;;;;;;;11.73;89.38;101370.81;5057148;28;20471;-88
2023/12/26 10:53:59;;;;;;;11.77;2.67;;;;;;;11.92;89.14;101384.31;5073341;28;20162;-88
2023/12/26 10:56:26;;;;;;;12.20;2.38;;;;;;;11.91;87.78;101371.97;5055260;28;20028;-85
2023/12/26 10:58:53;;;;;;;10.32;2.58;;;;;;;11.92;87.61;101371.97;5055798;28;20036;-87
2023/12/26 13:52:50;;;;;;;11.05;2.47;;;;;;;10.78;88.80;101553.38;5074349;28;20587;-89
2023/12/26 13:55:16;;;;;;;12.38;2.67;;;;;;;10.67;89.03;101541.72;5057688;28;20076;-91
2023/12/26 13:57:41;;;;;;;10.48;2.40;;;;;;;10.72;88.20;101572.66;5056095;28;20043;-90
2023/12/26 14:00:06;;;;;;;9.65;2.92;;;;;;;10.46;88.30;101524.53;5074717;28;20119;-90
2023/12/26 14:02:32;;;;;;;12.18;2.72;;;;;;;10.70;88.91;101581.41;5041457;28;20392;-92
2023/12/26 14:05:10;;;;;;;13.68;2.83;;;;;;;10.61;87.68;101566.22;5051577;28;20092;-94